Terminal Aerodrome Forecast
Issued by NWS

Home | Current Version | Previous Version | Text Only | Print | Product List | Glossary On
Versions: 1 2 3 4 5 6 7 8 9 10 11 12 13 14 15 16 17 18 19 20 21 22 23 24 25
000
FTUS41 KBUF 171740
TAFIAG
TAF
KIAG 171740Z 1718/1818 08010KT 2SM -RA BR SCT005 OVC013
     FM172100 13005KT P6SM VCSH OVC012
     FM172300 20008KT P6SM VCSH OVC012
     FM180600 24011G17KT 6SM -RA OVC012
     FM181000 25010G19KT P6SM VCSH OVC012
     FM181100 25009KT P6SM OVC012=

USA.gov is the U.S. government's official web portal to all federal, state and local government web resources and services.